Terminal Aerodrome Forecast
Issued by NWS Chicago, IL

Home | Current Version | Previous Version | Graphics & Text | Print | Product List | Glossary On
Versions: 1 2 3 4 5 6 7 8 9 10 11 12 13 14 15 16 17 18 19 20 21 22 23 24
488
FTUS43 KLOT 241120
TAFRFD
TAF
KRFD 241120Z 2412/2512 29009KT P6SM FEW090
     FM241500 29015G23KT P6SM BKN050
     FM250100 27008KT P6SM SCT050 BKN070 PROB30 2501/2504 -SHRA
      BKN050=

USA.gov is the U.S. government's official web portal to all federal, state and local government web resources and services.